createdAt,value
2022-09-06T15:35:10.365Z,23.59
2022-09-06T15:37:38.724Z,23.52
2022-09-06T15:40:08.007Z,23.40
2022-09-06T15:42:37.060Z,23.33
2022-09-06T15:45:06.417Z,23.30
2022-09-06T15:47:35.654Z,23.29
2022-09-06T15:50:04.325Z,23.24
2022-09-06T15:52:32.811Z,23.17
2022-09-06T15:55:19.657Z,23.09
2022-09-06T15:57:48.014Z,22.97
2022-09-06T16:00:18.128Z,22.80
2022-09-06T16:02:46.603Z,22.63
2022-09-06T16:05:15.094Z,22.45
2022-09-06T16:07:44.907Z,22.25
2022-09-06T16:10:13.348Z,22.05
2022-09-06T16:12:41.849Z,21.90
2022-09-06T16:15:10.946Z,21.63
2022-09-06T16:17:39.307Z,21.42
2022-09-06T16:20:08.001Z,21.26
2022-09-06T16:22:37.835Z,21.06
2022-09-06T16:25:06.617Z,20.85
2022-09-06T16:27:34.895Z,20.67
2022-09-06T16:30:04.421Z,20.50
2022-09-06T16:32:32.781Z,20.28
2022-09-06T16:35:01.488Z,20.07
2022-09-06T16:37:30.585Z,19.90
2022-09-06T16:39:59.012Z,19.74
2022-09-06T16:42:27.414Z,19.59
2022-09-06T16:44:55.734Z,19.50
2022-09-06T16:47:24.090Z,19.42
2022-09-06T16:49:52.446Z,19.35
2022-09-06T16:52:20.813Z,19.31
2022-09-06T16:54:49.087Z,19.27
2022-09-06T16:57:17.385Z,19.22
2022-09-06T16:59:45.703Z,19.17
2022-09-06T17:02:14.145Z,19.08
2022-09-06T17:04:42.856Z,18.99
2022-09-06T17:07:11.146Z,18.89
2022-09-06T17:09:39.476Z,18.80
2022-09-06T17:12:07.984Z,18.71
2022-09-06T17:14:37.197Z,18.62
2022-09-06T17:17:05.708Z,18.55
2022-09-06T17:19:40.407Z,18.49
2022-09-06T17:22:13.044Z,18.41
2022-09-06T17:24:42.902Z,18.33
2022-09-06T17:27:11.307Z,18.28
2022-09-06T17:29:40.382Z,18.26
2022-09-06T17:32:12.029Z,18.23
2022-09-06T17:34:41.541Z,18.16
2022-09-06T17:37:10.733Z,18.10
2022-09-06T17:39:39.254Z,18.04
2022-09-06T17:42:07.989Z,17.99
2022-09-06T17:44:36.402Z,17.94
2022-09-06T17:47:13.733Z,17.91
2022-09-06T17:49:43.310Z,17.86
2022-09-06T17:52:12.259Z,17.82
2022-09-06T17:54:40.595Z,17.80
2022-09-06T17:57:08.970Z,17.76
2022-09-06T17:59:38.711Z,17.72
2022-09-06T18:02:07.642Z,17.70
2022-09-06T18:04:36.085Z,17.67
2022-09-06T18:07:04.436Z,17.63
2022-09-06T18:09:32.822Z,17.60
2022-09-06T18:12:02.184Z,17.55
2022-09-06T18:14:30.681Z,17.50
2022-09-06T18:16:59.145Z,17.44
2022-09-06T18:19:28.127Z,17.40
2022-09-06T18:21:57.490Z,17.34
2022-09-06T18:24:26.119Z,17.31
2022-09-06T18:26:55.645Z,17.27
2022-09-06T18:29:24.050Z,17.21
2022-09-06T18:31:54.301Z,17.16
2022-09-06T18:34:22.872Z,17.14
2022-09-06T18:36:51.678Z,17.11
2022-09-06T18:39:20.674Z,17.11
2022-09-06T18:42:01.379Z,17.10
2022-09-06T18:44:32.586Z,17.10
2022-09-06T18:47:04.558Z,17.07
2022-09-06T18:49:34.007Z,17.05
2022-09-06T18:52:04.045Z,17.02
2022-09-06T18:54:33.411Z,16.99
2022-09-06T18:57:01.781Z,16.96
2022-09-06T18:59:30.178Z,16.92
2022-09-06T19:01:58.583Z,16.88
2022-09-06T19:04:27.262Z,16.81
2022-09-06T19:06:55.635Z,16.73
2022-09-06T19:09:24.021Z,16.66
2022-09-06T19:11:53.337Z,16.59
2022-09-06T19:14:22.304Z,16.54
2022-09-06T19:16:52.031Z,16.49
2022-09-06T19:19:22.022Z,16.44
2022-09-06T19:21:50.416Z,16.40
2022-09-06T19:24:22.794Z,16.36
2022-09-06T19:26:53.008Z,16.35
2022-09-06T19:29:21.732Z,16.32
2022-09-06T19:31:50.196Z,16.28
2022-09-06T19:34:19.276Z,16.24
2022-09-06T19:36:49.086Z,16.19
2022-09-06T19:39:18.004Z,16.17
2022-09-06T19:41:47.876Z,16.10
2022-09-06T19:44:17.564Z,16.01
2022-09-06T19:46:47.434Z,15.96
2022-09-06T19:49:17.805Z,15.91
2022-09-06T19:51:49.040Z,15.86
2022-09-06T19:54:18.241Z,15.81
2022-09-06T19:56:47.143Z,15.74
2022-09-06T19:59:16.642Z,15.68
2022-09-06T20:01:46.654Z,15.62
2022-09-06T20:04:16.058Z,15.58
2022-09-06T20:06:44.840Z,15.57
2022-09-06T20:09:13.778Z,15.57
2022-09-06T20:11:43.229Z,15.53
2022-09-06T20:14:12.557Z,15.51
2022-09-06T20:16:42.388Z,15.48
2022-09-06T20:19:12.740Z,15.46
2022-09-06T20:21:41.093Z,15.44
2022-09-06T20:24:09.581Z,15.41
2022-09-06T20:26:38.047Z,15.39
2022-09-06T20:29:07.328Z,15.37
2022-09-06T20:31:36.971Z,15.35
2022-09-06T20:34:06.590Z,15.34
2022-09-06T20:36:35.411Z,15.28
2022-09-06T20:39:04.587Z,15.23
2022-09-06T20:41:34.094Z,15.20
2022-09-06T20:44:03.014Z,15.20
2022-09-06T20:46:35.656Z,15.19
2022-09-06T20:49:05.010Z,15.18
2022-09-06T20:51:36.187Z,15.19
2022-09-06T20:54:05.702Z,15.19
2022-09-06T20:56:39.028Z,15.19
2022-09-06T20:59:11.274Z,15.18
2022-09-06T21:01:42.834Z,15.13
2022-09-06T21:04:13.492Z,15.08
2022-09-06T21:06:42.501Z,15.03
2022-09-06T21:09:13.598Z,14.97
2022-09-06T21:11:42.938Z,14.93
2022-09-06T21:14:12.838Z,14.89
2022-09-06T21:16:41.659Z,14.83
2022-09-06T21:19:11.551Z,14.78
2022-09-06T21:21:40.082Z,14.74
2022-09-06T21:24:10.376Z,14.70
2022-09-06T21:26:39.352Z,14.68
2022-09-06T21:29:07.735Z,14.66
2022-09-06T21:31:37.565Z,14.63
2022-09-06T21:34:16.338Z,14.62
2022-09-06T21:36:45.759Z,14.61
2022-09-06T21:39:14.971Z,14.59
2022-09-06T21:41:44.294Z,14.58
2022-09-06T21:44:13.153Z,14.57
2022-09-06T21:46:42.567Z,14.56
2022-09-06T21:49:13.726Z,14.57
2022-09-06T21:51:42.275Z,14.57
2022-09-06T21:54:10.696Z,14.58
2022-09-06T21:56:40.577Z,14.60
2022-09-06T21:59:09.506Z,14.61
2022-09-06T22:01:41.040Z,14.63
2022-09-06T22:04:10.693Z,14.67
2022-09-06T22:06:39.222Z,14.70
2022-09-06T22:09:11.680Z,14.72
2022-09-06T22:11:43.604Z,14.75
2022-09-06T22:14:15.293Z,14.77
2022-09-06T22:16:44.080Z,14.79
2022-09-06T22:19:13.041Z,14.82
2022-09-06T22:21:41.423Z,14.83
2022-09-06T22:24:11.770Z,14.84
2022-09-06T22:26:41.419Z,14.84
2022-09-06T22:29:11.659Z,14.85
2022-09-06T22:31:41.294Z,14.82
2022-09-06T22:34:10.628Z,14.79
2022-09-06T22:36:39.423Z,14.80
2022-09-06T22:39:09.810Z,14.80
2022-09-06T22:41:38.299Z,14.82
2022-09-06T22:44:07.432Z,14.82
2022-09-06T22:46:37.309Z,14.82
2022-09-06T22:49:05.950Z,14.81
2022-09-06T22:51:34.622Z,14.82
2022-09-06T22:54:04.772Z,14.82
2022-09-06T22:56:33.846Z,14.82
2022-09-06T22:59:02.306Z,14.83
2022-09-06T23:01:32.854Z,14.84
2022-09-06T23:04:01.443Z,14.85
2022-09-06T23:06:29.776Z,14.87
2022-09-06T23:08:58.133Z,14.88
2022-09-06T23:11:28.024Z,14.88
2022-09-06T23:13:58.097Z,14.88
2022-09-06T23:16:28.320Z,14.88
2022-09-06T23:18:56.997Z,14.88
2022-09-06T23:21:26.500Z,14.87
2022-09-06T23:23:56.391Z,14.88
2022-09-06T23:26:28.930Z,14.90
2022-09-06T23:28:58.314Z,14.93
2022-09-06T23:31:29.479Z,14.96
2022-09-06T23:34:00.137Z,15.01
2022-09-06T23:36:28.437Z,15.04
2022-09-06T23:38:57.578Z,15.05
2022-09-06T23:41:26.048Z,15.04
2022-09-06T23:43:55.084Z,15.02
2022-09-06T23:46:23.563Z,15.00
2022-09-06T23:48:52.263Z,14.97
2022-09-06T23:51:20.643Z,14.94
2022-09-06T23:53:48.960Z,14.92
2022-09-06T23:56:17.341Z,14.88
2022-09-06T23:58:45.827Z,14.82
